Terminal Aerodrome Forecast
Issued by NWS

Home | Current Version | Previous Version | Text Only | Print | Product List | Glossary On
Versions: 1 2 3 4 5 6 7 8 9 10 11 12 13 14
000
FTUS43 KSGF 290500
TAFJLN
TAF
KJLN 290520Z 2906/3006 16006KT P6SM SKC
     FM291500 20010KT P6SM VCSH BKN050
      TEMPO 2915/2919 -TSRA OVC035CB
     FM292000 20012KT P6SM VCTS BKN050CB=

USA.gov is the U.S. government's official web portal to all federal, state and local government web resources and services.